Time;durP1;ratioP1;P1;durP2;ratioP2;P2;SDS_P1;SDS_P2;PMS_P1;PMS_P2;Temp;Humidity;BMP_temperature;BMP_pressure;BME280_temperature;BME280_humidity;BME280_pressure;Samples;Min_cycle;Max_cycle;Signal;HPM_P1;HPM_P2
2021/12/03 00:00:29;;;;;;;37.83;20.25;;;;;;;1.12;75.75;99771.41;5051921;28;20072;-82
2021/12/03 00:02:57;;;;;;;37.80;20.00;;;;;;;1.11;75.21;99768.91;5052282;28;20048;-82
2021/12/03 00:05:24;;;;;;;40.50;20.25;;;;;;;1.07;75.12;99754.94;5052503;28;20049;-82
2021/12/03 00:07:52;;;;;;;41.45;20.13;;;;;;;1.02;75.08;99755.72;5051817;28;20056;-82
2021/12/03 00:10:23;;;;;;;41.45;22.13;;;;;;;0.94;76.35;99750.75;5051105;28;20053;-82
2021/12/03 00:12:52;;;;;;;44.67;22.38;;;;;;;0.96;75.48;99753.25;5051230;28;20059;-82
2021/12/03 00:15:20;;;;;;;44.90;22.27;;;;;;;0.96;75.70;99742.28;5050272;28;20060;-82
2021/12/03 00:17:47;;;;;;;43.65;21.70;;;;;;;0.92;76.28;99752.13;5047378;28;20057;-83
2021/12/03 00:20:17;;;;;;;41.58;21.10;;;;;;;0.88;75.99;99746.34;5048244;28;20068;-83
2021/12/03 00:22:47;;;;;;;43.83;21.13;;;;;;;0.86;76.39;99732.09;5048341;28;20505;-83
2021/12/03 00:25:15;;;;;;;53.15;23.95;;;;;;;0.80;76.49;99739.47;5048212;28;20063;-82
2021/12/03 00:27:43;;;;;;;45.53;22.33;;;;;;;0.84;76.37;99734.28;5047471;28;20053;-83
2021/12/03 00:30:14;;;;;;;47.97;22.67;;;;;;;0.86;76.20;99739.50;5048240;28;20045;-83
2021/12/03 00:32:43;;;;;;;51.72;22.55;;;;;;;0.92;76.68;99743.91;5046326;28;20057;-83
2021/12/03 00:35:11;;;;;;;45.30;21.98;;;;;;;0.99;76.17;99749.97;5046231;28;20411;-83
2021/12/03 00:37:41;;;;;;;49.15;24.35;;;;;;;0.98;77.26;99753.78;5051783;28;20053;-82
2021/12/03 00:40:11;;;;;;;51.20;24.05;;;;;;;1.09;77.00;99758.25;5051563;28;20052;-81
2021/12/03 00:42:39;;;;;;;51.33;25.55;;;;;;;1.25;76.57;99761.84;5051292;28;20068;-82
2021/12/03 00:45:11;;;;;;;49.67;24.13;;;;;;;1.27;77.31;99756.09;5051609;28;20049;-83
2021/12/03 00:51:01;;;;;;;43.55;22.05;;;;;;;1.36;77.30;99741.53;5053021;28;20051;-83
2021/12/03 00:53:28;;;;;;;39.45;21.25;;;;;;;1.57;77.26;99747.06;5051486;28;20041;-83
2021/12/03 00:55:56;;;;;;;42.25;22.23;;;;;;;1.56;76.76;99751.75;5050399;28;20088;-83
2021/12/03 00:58:23;;;;;;;43.55;21.45;;;;;;;1.61;77.06;99754.50;5052606;28;20044;-83
2021/12/03 01:00:52;;;;;;;35.40;19.92;;;;;;;1.66;76.67;99752.84;5049979;28;20645;-83
2021/12/03 01:03:20;;;;;;;40.25;22.17;;;;;;;1.67;77.43;99754.50;5052010;28;20049;-83
2021/12/03 01:05:47;;;;;;;39.00;20.70;;;;;;;1.78;77.17;99754.22;5049991;28;20076;-83
2021/12/03 01:08:15;;;;;;;38.55;21.55;;;;;;;1.79;76.99;99763.31;5049932;28;20529;-83
2021/12/03 01:10:42;;;;;;;37.45;21.00;;;;;;;1.91;76.79;99755.63;5052116;28;20061;-83
2021/12/03 01:13:09;;;;;;;37.90;20.35;;;;;;;1.81;77.03;99761.94;5050414;28;20060;-83
2021/12/03 01:15:39;;;;;;;40.67;21.23;;;;;;;1.99;76.41;99757.78;5050945;28;20055;-83
2021/12/03 01:18:09;;;;;;;42.05;21.25;;;;;;;2.07;76.25;99767.41;5051114;28;20075;-83
2021/12/03 01:20:38;;;;;;;35.75;20.00;;;;;;;2.11;75.55;99762.22;5050764;28;20048;-83
2021/12/03 01:23:07;;;;;;;38.03;20.52;;;;;;;2.13;76.17;99765.50;5050550;28;20060;-83
2021/12/03 01:25:35;;;;;;;38.83;21.15;;;;;;;2.18;76.11;99768.22;5050655;28;20044;-83
2021/12/03 01:28:02;;;;;;;34.40;19.02;;;;;;;2.26;75.27;99767.69;5051281;28;20052;-83
2021/12/03 01:30:32;;;;;;;34.17;19.35;;;;;;;2.19;75.75;99776.19;5051014;28;20048;-83
2021/12/03 01:33:02;;;;;;;33.17;18.63;;;;;;;2.33;75.35;99800.34;5050816;28;20053;-84
2021/12/03 01:40:16;;;;;;;36.67;18.85;;;;;;;2.34;74.96;99805.59;4920449;29;20048;-83
2021/12/03 01:46:05;;;;;;;31.67;17.20;;;;;;;2.40;75.88;99809.97;4907367;28;20065;-83
2021/12/03 01:48:33;;;;;;;36.97;20.40;;;;;;;2.47;75.59;99815.19;4987366;28;20054;-83
2021/12/03 01:51:01;;;;;;;34.03;18.60;;;;;;;2.49;75.30;99814.91;5044248;28;20116;-83
2021/12/03 01:53:35;;;;;;;32.08;17.50;;;;;;;2.64;74.98;99798.41;5050954;28;20063;-83
2021/12/03 01:56:07;;;;;;;36.03;18.33;;;;;;;2.78;75.21;99804.97;5055913;28;20045;-83
2021/12/03 01:58:34;;;;;;;30.17;17.25;;;;;;;2.80;75.36;99791.75;5053511;28;20045;-83
2021/12/03 02:01:04;;;;;;;31.80;17.35;;;;;;;2.67;76.22;99794.25;5050781;28;20053;-83
2021/12/03 02:03:33;;;;;;;;;;;;;;;2.66;75.55;99787.13;5051896;28;20060;-84
2021/12/03 02:06:02;;;;;;;30.02;16.75;;;;;;;2.48;75.81;99780.28;5050464;28;19944;-84
2021/12/03 02:17:25;;;;;;;36.08;19.20;;;;;;;2.42;75.77;99780.31;4966818;28;20158;-84
2021/12/03 02:27:46;;;;;;;;;;;;;;;;;;;;;
2021/12/03 02:30:16;;;;;;;34.97;17.42;;;;;;;2.48;76.43;99788.53;4905008;29;20060;-84
2021/12/03 02:32:44;;;;;;;28.52;15.95;;;;;;;2.61;75.81;99793.47;4901022;29;20447;-84
2021/12/03 02:35:11;;;;;;;30.38;16.10;;;;;;;2.64;76.13;99792.91;4952004;28;20489;-84
2021/12/03 02:37:39;;;;;;;26.75;14.88;;;;;;;2.72;75.90;99795.06;5045887;28;20071;-84
2021/12/03 02:40:08;;;;;;;26.13;16.30;;;;;;;2.64;76.07;99792.91;5045257;28;20044;-84
2021/12/03 02:42:36;;;;;;;29.80;15.80;;;;;;;2.70;76.21;99793.72;5046076;28;20076;-84
2021/12/03 02:45:04;;;;;;;30.20;18.63;;;;;;;2.79;75.54;99781.03;5044529;28;20493;-84
2021/12/03 02:47:33;;;;;;;28.55;17.58;;;;;;;2.80;75.45;99789.00;5045504;28;20387;-84
2021/12/03 02:50:00;;;;;;;31.65;18.75;;;;;;;2.83;75.07;99784.88;5046158;28;20371;-84
2021/12/03 02:52:28;;;;;;;28.48;18.40;;;;;;;2.93;75.22;99784.03;5045534;28;20049;-84
2021/12/03 02:54:55;;;;;;;29.65;17.85;;;;;;;2.97;74.67;99791.41;5045848;28;20049;-84
2021/12/03 02:57:23;;;;;;;25.17;15.65;;;;;;;2.96;75.05;99786.19;5047391;28;20514;-85
2021/12/03 02:59:50;;;;;;;24.02;15.43;;;;;;;2.88;74.56;99792.28;5044621;28;20044;-84
2021/12/03 03:02:19;;;;;;;23.30;16.48;;;;;;;2.92;74.41;99790.59;5046317;28;20052;-84
2021/12/03 03:04:48;;;;;;;23.63;14.95;;;;;;;3.02;73.88;99787.81;5045039;28;20057;-84
2021/12/03 03:07:15;;;;;;;25.15;16.48;;;;;;;3.15;74.13;99790.00;5044625;28;20060;-85
2021/12/03 03:09:44;;;;;;;24.48;16.77;;;;;;;3.19;73.78;99785.56;5046541;28;20057;-84
2021/12/03 03:12:12;;;;;;;26.65;17.50;;;;;;;3.22;73.78;99782.25;5045888;28;20524;-84
2021/12/03 03:14:45;;;;;;;26.10;16.30;;;;;;;3.17;73.36;99779.53;5046031;28;20068;-84
2021/12/03 03:17:15;;;;;;;26.88;16.40;;;;;;;3.20;73.80;99780.88;5045606;28;20490;-84
2021/12/03 03:19:43;;;;;;;25.02;15.32;;;;;;;3.30;73.37;99775.31;5044940;28;20048;-84
2021/12/03 03:22:12;;;;;;;23.27;15.07;;;;;;;3.36;73.50;99771.44;5045790;28;20075;-84
2021/12/03 03:24:40;;;;;;;27.38;16.77;;;;;;;3.45;73.11;99775.22;5043430;28;20053;-84
2021/12/03 03:27:09;;;;;;;24.10;16.05;;;;;;;3.39;72.92;99781.06;5045694;28;20052;-84
2021/12/03 03:29:36;;;;;;;24.02;15.57;;;;;;;3.55;72.95;99785.38;5043825;28;20052;-84
2021/12/03 03:32:04;;;;;;;24.70;15.15;;;;;;;3.66;72.96;99784.19;5043946;28;20060;-84
2021/12/03 03:34:35;;;;;;;25.60;15.52;;;;;;;3.65;72.56;99776.22;5046010;28;20489;-84
2021/12/03 03:37:02;;;;;;;25.50;14.95;;;;;;;3.68;72.37;99781.16;5044718;28;20053;-84
2021/12/03 03:39:32;;;;;;;24.92;15.50;;;;;;;3.69;72.48;99777.28;5043299;28;20418;-84
2021/12/03 03:41:59;;;;;;;25.60;16.10;;;;;;;3.54;72.84;99778.22;5045786;28;20056;-84
2021/12/03 03:44:27;;;;;;;26.65;16.50;;;;;;;3.64;72.75;99775.38;5043944;28;20849;-85
2021/12/03 03:46:56;;;;;;;25.77;16.20;;;;;;;3.63;72.64;99773.75;5043733;28;20068;-84
2021/12/03 03:49:24;;;;;;;22.97;15.27;;;;;;;3.63;72.69;99776.50;5045858;28;20053;-85
2021/12/03 03:51:53;;;;;;;26.33;17.23;;;;;;;3.55;72.84;99779.03;5046084;28;20079;-85
2021/12/03 03:54:20;;;;;;;27.67;17.23;;;;;;;3.68;72.66;99780.34;5043850;28;20052;-85
2021/12/03 03:56:49;;;;;;;28.48;17.90;;;;;;;3.82;72.23;99775.81;5043712;28;20525;-84
2021/12/03 03:59:17;;;;;;;27.73;17.85;;;;;;;3.65;72.58;99773.44;5045013;28;20052;-84
2021/12/03 04:01:45;;;;;;;35.05;21.35;;;;;;;3.57;73.11;99771.31;5043969;28;20436;-84
2021/12/03 04:04:13;;;;;;;35.40;22.10;;;;;;;3.62;73.37;99771.28;5043754;28;20053;-84
2021/12/03 04:06:41;;;;;;;37.42;22.35;;;;;;;3.56;73.30;99770.47;5044142;28;20053;-84
2021/12/03 04:09:09;;;;;;;32.88;19.63;;;;;;;3.61;73.43;99766.88;5044428;28;20057;-84
2021/12/03 04:11:37;;;;;;;39.17;22.90;;;;;;;3.68;73.53;99752.81;5042712;28;20049;-84
2021/12/03 04:14:06;;;;;;;40.97;24.42;;;;;;;3.63;73.45;99754.47;5043688;28;20052;-84
2021/12/03 04:16:33;;;;;;;38.05;20.33;;;;;;;3.77;73.33;99749.13;5044710;28;20044;-84
2021/12/03 04:19:01;;;;;;;36.42;21.60;;;;;;;3.72;73.75;99751.13;5044715;28;20053;-84
2021/12/03 04:21:28;;;;;;;36.78;22.02;;;;;;;3.60;73.88;99754.22;5044656;28;20045;-84
2021/12/03 04:23:56;;;;;;;40.33;21.77;;;;;;;3.47;74.85;99758.44;5045302;28;20060;-85
2021/12/03 04:26:23;;;;;;;35.33;19.92;;;;;;;3.45;74.87;99752.41;5044672;28;20413;-84
2021/12/03 04:28:51;;;;;;;33.33;20.48;;;;;;;3.45;74.55;99752.41;5046022;28;20434;-84
2021/12/03 04:31:19;;;;;;;32.45;19.05;;;;;;;3.48;74.86;99740.78;5040498;28;20049;-84
2021/12/03 04:33:46;;;;;;;33.60;20.55;;;;;;;3.49;74.68;99745.22;5045210;28;20410;-84
2021/12/03 04:36:14;;;;;;;34.25;19.80;;;;;;;3.50;74.61;99733.06;5045404;28;20045;-84
2021/12/03 04:38:42;;;;;;;38.20;21.70;;;;;;;3.51;75.01;99734.75;5047881;28;20053;-84
2021/12/03 04:41:09;;;;;;;32.38;18.40;;;;;;;3.53;74.82;99740.78;5047343;28;20052;-84
2021/12/03 04:43:37;;;;;;;37.08;20.50;;;;;;;3.70;74.38;99731.31;5048063;28;20063;-84
2021/12/03 04:46:04;;;;;;;36.00;20.73;;;;;;;3.70;74.43;99732.13;5047016;28;20053;-84
2021/12/03 04:48:33;;;;;;;36.72;21.20;;;;;;;3.77;74.18;99738.13;5048725;28;20057;-84
2021/12/03 04:51:00;;;;;;;33.15;21.02;;;;;;;3.71;74.23;99738.44;5047363;28;20049;-84
2021/12/03 04:53:28;;;;;;;35.35;21.27;;;;;;;3.61;74.33;99728.31;5050697;28;20053;-84
2021/12/03 04:55:55;;;;;;;34.22;20.98;;;;;;;3.74;74.47;99726.84;5047498;28;20564;-84
2021/12/03 04:58:23;;;;;;;33.80;21.00;;;;;;;3.73;74.16;99726.03;5048002;28;20050;-84
2021/12/03 05:00:52;;;;;;;31.05;18.70;;;;;;;3.80;74.00;99722.94;5047668;28;20049;-84
2021/12/03 05:03:23;;;;;;;33.40;18.45;;;;;;;3.74;73.83;99724.94;5048205;28;20052;-84
2021/12/03 05:05:54;;;;;;;29.77;18.30;;;;;;;3.74;73.80;99726.84;5047337;28;20049;-84
2021/12/03 05:08:22;;;;;;;30.10;19.00;;;;;;;3.78;74.33;99723.25;5047003;28;20045;-83
2021/12/03 05:10:50;;;;;;;31.50;17.63;;;;;;;3.73;73.78;99733.47;5047540;28;20079;-84
2021/12/03 05:13:20;;;;;;;29.58;17.77;;;;;;;3.72;74.44;99718.06;5047853;28;20052;-84
2021/12/03 05:15:48;;;;;;;30.25;17.80;;;;;;;3.51;74.54;99712.72;5047394;28;20049;-84
2021/12/03 05:18:17;;;;;;;30.70;16.58;;;;;;;3.51;74.46;99712.72;5048415;28;20513;-84
2021/12/03 05:20:46;;;;;;;29.40;18.67;;;;;;;3.54;74.36;99717.63;5046314;28;20057;-84
2021/12/03 05:23:16;;;;;;;27.50;16.02;;;;;;;3.54;74.36;99733.34;5046853;28;20052;-84
2021/12/03 05:25:44;;;;;;;24.92;14.30;;;;;;;3.57;74.85;99728.09;5047514;28;20053;-84
2021/12/03 05:28:12;;;;;;;30.27;18.90;;;;;;;3.59;74.73;99731.38;5047897;28;20402;-84
2021/12/03 05:30:39;;;;;;;30.98;17.83;;;;;;;3.53;75.03;99727.00;5047209;28;20049;-84
2021/12/03 05:33:07;;;;;;;30.90;17.67;;;;;;;3.48;74.99;99724.28;5046779;28;20052;-84
2021/12/03 05:35:36;;;;;;;30.90;19.27;;;;;;;3.66;74.75;99731.88;5048083;28;20053;-84
2021/12/03 05:38:04;;;;;;;31.67;17.40;;;;;;;3.75;73.89;99731.25;5047085;28;20418;-84
2021/12/03 05:40:33;;;;;;;29.88;17.00;;;;;;;3.83;74.22;99731.47;5046793;28;20041;-84
2021/12/03 05:43:01;;;;;;;30.93;17.30;;;;;;;3.90;73.53;99739.38;5047170;28;20437;-84
2021/12/03 05:45:31;;;;;;;31.27;18.33;;;;;;;3.83;74.67;99747.16;5047047;28;20491;-84
2021/12/03 05:47:59;;;;;;;;;;;;;;;3.90;73.75;99747.66;5045942;28;20144;-84
2021/12/03 05:50:28;;;;;;;29.50;17.73;;;;;;;3.88;74.37;99749.88;5046105;28;20544;-85
2021/12/03 05:52:57;;;;;;;30.07;19.10;;;;;;;3.94;73.92;99743.22;5045949;28;20056;-85
2021/12/03 05:55:25;;;;;;;30.98;18.63;;;;;;;4.00;74.04;99750.31;5047152;28;20048;-85
2021/12/03 05:57:54;;;;;;;32.88;19.83;;;;;;;4.05;73.69;99753.06;5048697;28;20060;-84
2021/12/03 06:00:26;;;;;;;32.53;20.38;;;;;;;4.04;73.79;99756.09;5045261;28;20088;-84
2021/12/03 06:02:54;;;;;;;31.98;20.27;;;;;;;4.06;73.40;99756.63;5047800;28;20053;-84
2021/12/03 06:05:22;;;;;;;36.08;20.23;;;;;;;3.95;73.75;99747.63;5047193;28;20049;-84
2021/12/03 06:07:50;;;;;;;37.45;22.80;;;;;;;3.97;73.79;99744.56;5045741;28;20049;-84
2021/12/03 06:10:17;;;;;;;36.55;19.65;;;;;;;4.02;73.62;99747.28;5048035;28;20397;-84
2021/12/03 06:12:46;;;;;;;29.25;18.70;;;;;;;3.89;73.51;99745.22;5045416;28;20048;-84
2021/12/03 06:15:17;;;;;;;32.73;19.93;;;;;;;3.97;73.64;99742.66;5046434;28;20075;-84
2021/12/03 06:17:44;;;;;;;31.88;18.15;;;;;;;3.92;73.84;99753.69;5047903;28;20999;-84
2021/12/03 06:20:13;;;;;;;32.17;20.27;;;;;;;3.89;74.11;99737.75;5045814;28;21839;-84
2021/12/03 06:22:42;;;;;;;25.30;15.07;;;;;;;3.98;73.54;99744.28;5046939;28;20051;-84
2021/12/03 06:25:11;;;;;;;29.90;17.90;;;;;;;3.99;73.13;99745.94;5047292;28;20049;-84
2021/12/03 06:27:39;;;;;;;24.15;13.40;;;;;;;4.00;73.48;99741.25;5045001;28;20048;-84
2021/12/03 06:30:10;;;;;;;30.50;18.55;;;;;;;3.92;73.52;99742.69;5044662;28;20112;-84
2021/12/03 06:32:40;;;;;;;31.02;18.85;;;;;;;3.92;73.62;99745.44;5048321;28;20055;-84
2021/12/03 06:35:10;;;;;;;33.05;19.30;;;;;;;3.83;73.78;99742.47;5045747;28;20059;-83
2021/12/03 06:37:38;;;;;;;29.23;19.42;;;;;;;3.99;73.63;99734.91;5046512;28;20049;-83
2021/12/03 06:40:09;;;;;;;31.73;16.83;;;;;;;3.85;73.59;99740.25;5041672;28;20406;-83
2021/12/03 06:42:36;;;;;;;31.33;18.42;;;;;;;4.02;73.54;99744.53;5033715;28;20058;-84
2021/12/03 06:45:08;;;;;;;31.27;19.13;;;;;;;4.07;73.12;99745.31;5049870;28;20417;-83
2021/12/03 06:47:36;;;;;;;32.10;18.58;;;;;;;4.03;73.37;99741.50;5036112;28;20088;-84
2021/12/03 06:50:07;;;;;;;31.92;19.27;;;;;;;3.99;73.83;99734.91;5048181;28;20053;-84
2021/12/03 06:52:37;;;;;;;27.35;16.67;;;;;;;3.97;73.40;99748.16;5053736;28;20128;-84
2021/12/03 06:55:05;;;;;;;;;;;;;;;3.92;73.66;99742.69;5053276;28;20052;-84
2021/12/03 06:57:33;;;;;;;24.83;16.17;;;;;;;3.89;73.70;99737.75;5053483;28;19924;-84
2021/12/03 07:00:00;;;;;;;25.85;15.15;;;;;;;4.04;73.83;99743.13;5049093;28;20060;-84
2021/12/03 07:02:27;;;;;;;22.45;14.27;;;;;;;3.96;73.24;99735.47;5039506;28;20045;-83
2021/12/03 07:04:55;;;;;;;25.67;14.70;;;;;;;3.96;73.26;99742.94;5046403;28;20076;-83
2021/12/03 07:07:24;;;;;;;27.80;15.40;;;;;;;4.00;73.38;99741.25;5050669;28;20405;-83
2021/12/03 07:09:51;;;;;;;23.95;14.45;;;;;;;3.93;73.15;99743.53;5054502;28;20052;-83
2021/12/03 07:12:19;;;;;;;20.63;13.07;;;;;;;3.84;73.16;99751.56;5048335;28;20057;-83
2021/12/03 07:14:46;;;;;;;20.08;12.80;;;;;;;3.97;72.83;99752.81;5039009;28;20052;-83
2021/12/03 07:17:13;;;;;;;24.75;14.45;;;;;;;3.97;72.73;99739.91;5047447;28;20049;-83
2021/12/03 07:19:41;;;;;;;27.90;16.05;;;;;;;3.96;73.63;99742.94;5040483;28;20056;-83
2021/12/03 07:22:18;;;;;;;28.92;16.92;;;;;;;4.05;73.22;99744.78;5036107;28;20103;-87
2021/12/03 07:24:47;;;;;;;24.48;16.30;;;;;;;4.08;73.30;99743.38;5045310;28;20053;-85
2021/12/03 07:27:14;;;;;;;22.67;15.27;;;;;;;4.20;72.97;99742.97;5035224;28;20053;-86
2021/12/03 07:29:46;;;;;;;26.80;16.48;;;;;;;4.25;73.04;99754.78;5045408;28;20283;-85
2021/12/03 07:32:14;;;;;;;32.55;17.92;;;;;;;4.15;73.11;99746.63;5041021;28;20053;-85
2021/12/03 07:34:41;;;;;;;33.05;18.90;;;;;;;4.19;73.15;99744.09;5050537;28;20059;-87
2021/12/03 07:37:09;;;;;;;26.52;16.17;;;;;;;4.22;73.25;99746.28;5052714;28;20048;-85
2021/12/03 07:39:37;;;;;;;28.75;15.68;;;;;;;4.21;73.33;99739.94;5046270;28;20044;-84
2021/12/03 07:42:07;;;;;;;29.55;17.60;;;;;;;4.21;73.51;99741.88;5047358;28;20049;-85
2021/12/03 07:44:34;;;;;;;;;;;;;;;4.10;73.30;99738.41;5044778;28;20056;-85
2021/12/03 07:47:02;;;;;;;25.63;16.38;;;;;;;4.23;73.49;99740.47;5046830;28;20293;-85
2021/12/03 07:49:29;;;;;;;30.48;17.13;;;;;;;4.15;73.77;99737.53;5051751;28;20060;-85
2021/12/03 07:52:00;;;;;;;31.83;17.20;;;;;;;4.11;73.87;99739.22;5050520;28;20060;-85
2021/12/03 07:54:27;;;;;;;31.30;18.33;;;;;;;4.19;74.01;99738.59;5041877;28;20049;-86
2021/12/03 07:56:55;;;;;;;32.10;18.30;;;;;;;4.19;73.63;99738.59;5054786;28;20053;-87
2021/12/03 07:59:24;;;;;;;25.63;16.38;;;;;;;4.17;73.96;99729.78;5052740;28;20060;-84
2021/12/03 08:01:52;;;;;;;30.73;17.42;;;;;;;4.16;73.84;99739.16;5040839;28;20053;-84
2021/12/03 08:07:24;;;;;;;31.50;16.88;;;;;;;4.13;73.80;99737.81;5047550;28;20402;-88
2021/12/03 08:10:13;;;;;;;31.58;18.33;;;;;;;4.14;73.92;99738.66;5031469;28;20049;-89
2021/12/03 08:12:46;;;;;;;30.58;17.92;;;;;;;4.21;73.92;99741.88;4998803;28;20054;-88
2021/12/03 08:15:16;;;;;;;29.80;16.83;;;;;;;4.24;73.72;99753.16;5010638;28;20076;-85
2021/12/03 08:17:47;;;;;;;30.70;16.95;;;;;;;4.01;79.00;99752.00;5003660;28;20053;-77
2021/12/03 08:20:14;;;;;;;34.35;17.92;;;;;;;4.28;80.43;99753.38;5002969;28;20050;-76
2021/12/03 08:22:43;;;;;;;31.10;17.33;;;;;;;4.53;74.65;99755.06;5010566;28;20058;-79
2021/12/03 08:25:12;;;;;;;27.15;16.58;;;;;;;4.54;73.57;99750.41;5010151;28;20057;-79
2021/12/03 08:27:41;;;;;;;29.63;16.48;;;;;;;4.50;73.08;99747.38;5002662;28;20049;-79
2021/12/03 08:30:12;;;;;;;26.92;16.90;;;;;;;4.62;72.38;99741.44;5001276;28;20054;-79
2021/12/03 08:32:42;;;;;;;29.48;15.35;;;;;;;4.43;72.43;99742.22;5002460;28;20062;-79
2021/12/03 08:35:10;;;;;;;23.98;12.45;;;;;;;4.17;73.46;99754.59;5002417;28;20467;-78
2021/12/03 08:37:43;;;;;;;23.60;12.02;;;;;;;4.34;72.53;99745.91;5003861;28;20154;-79
2021/12/03 08:40:12;;;;;;;29.55;15.15;;;;;;;4.48;72.34;99741.34;5003322;28;20066;-79
2021/12/03 08:42:44;;;;;;;25.65;14.50;;;;;;;4.57;72.24;99747.84;5032862;28;20076;-80
2021/12/03 08:45:11;;;;;;;23.45;12.90;;;;;;;4.39;71.98;99746.66;5055141;28;20045;-80
2021/12/03 08:47:39;;;;;;;22.48;12.35;;;;;;;4.36;72.66;99747.25;5047828;28;20449;-79
2021/12/03 08:50:12;;;;;;;23.80;13.10;;;;;;;4.51;72.02;99745.44;5045811;28;20053;-79
2021/12/03 08:55:31;;;;;;;25.13;13.23;;;;;;;4.61;71.30;99734.31;5014380;28;20042;-82
2021/12/03 08:57:58;;;;;;;20.45;13.23;;;;;;;4.73;70.85;99748.50;5051590;28;20493;-79
2021/12/03 09:00:26;;;;;;;21.70;13.60;;;;;;;4.69;71.04;99744.69;5051531;28;20073;-79
2021/12/03 09:02:53;;;;;;;23.75;12.75;;;;;;;4.88;70.03;99737.28;5046292;28;20096;-77
2021/12/03 09:05:27;;;;;;;17.60;10.90;;;;;;;4.74;69.73;99728.06;5050195;28;20053;-77
2021/12/03 09:07:54;;;;;;;19.10;10.77;;;;;;;4.79;69.24;99724.47;5044489;28;20056;-77
2021/12/03 09:10:21;;;;;;;19.55;9.98;;;;;;;4.66;68.80;99726.81;5049168;28;20049;-77
2021/12/03 09:12:49;;;;;;;15.45;9.35;;;;;;;4.83;68.44;99728.25;5049396;28;20067;-79
2021/12/03 09:15:18;;;;;;;14.27;8.77;;;;;;;4.76;67.92;99725.03;5052848;28;20053;-77
2021/12/03 09:17:57;;;;;;;14.65;8.10;;;;;;;4.68;67.84;99726.50;5049361;28;20433;-77
2021/12/03 09:20:37;;;;;;;13.63;8.03;;;;;;;4.80;67.06;99728.84;5052855;28;20533;-77
2021/12/03 09:23:08;;;;;;;18.42;7.03;;;;;;;4.74;67.26;99721.75;5046923;28;20490;-77
2021/12/03 09:25:38;;;;;;;18.33;9.25;;;;;;;4.82;67.30;99715.56;5050298;28;20486;-78
2021/12/03 09:28:08;;;;;;;12.68;6.25;;;;;;;4.65;66.53;99729.84;5051883;28;20059;-79
2021/12/03 09:30:38;;;;;;;15.05;7.47;;;;;;;4.76;66.96;99722.28;5047974;28;20069;-78
2021/12/03 09:33:07;;;;;;;;;;;;;;;4.71;67.03;99722.34;5047147;28;20057;-78
2021/12/03 09:35:40;;;;;;;12.82;6.55;;;;;;;4.59;66.27;99731.84;5047270;28;19928;-78
2021/12/03 09:38:08;;;;;;;13.90;6.13;;;;;;;4.77;66.18;99727.50;5044276;28;20056;-78
2021/12/03 09:40:36;;;;;;;11.88;5.88;;;;;;;4.56;66.29;99720.59;5046336;28;20399;-78
2021/12/03 09:43:04;;;;;;;9.65;5.60;;;;;;;4.72;65.93;99708.22;5045124;28;20061;-78
2021/12/03 09:45:34;;;;;;;16.73;6.13;;;;;;;4.73;66.11;99712.66;5048206;28;20052;-80
2021/12/03 09:48:12;;;;;;;14.05;6.13;;;;;;;4.82;65.35;99697.06;5049918;28;20057;-81
2021/12/03 09:50:42;;;;;;;9.02;5.00;;;;;;;4.87;65.30;99710.81;5051101;28;20056;-81
2021/12/03 09:53:24;;;;;;;9.52;5.53;;;;;;;4.62;65.63;99700.91;5047575;28;20056;-80
2021/12/03 09:55:52;;;;;;;13.68;6.07;;;;;;;4.69;65.77;99689.53;5050228;28;20071;-80
2021/12/03 09:58:42;;;;;;;13.98;5.18;;;;;;;4.94;64.90;99709.66;5036633;28;20056;-80
2021/12/03 10:01:12;;;;;;;11.35;5.28;;;;;;;5.10;63.96;99680.69;5049185;28;20049;-79
2021/12/03 10:03:53;;;;;;;7.95;3.67;;;;;;;5.22;63.35;99678.31;5034080;28;20057;-78
2021/12/03 10:12:37;;;;;;;12.63;4.23;;;;;;;5.58;61.83;99682.47;5038446;28;20053;-79
2021/12/03 10:15:07;;;;;;;7.00;3.78;;;;;;;5.66;61.37;99688.13;5042501;28;20053;-79
2021/12/03 10:17:43;;;;;;;;;;;;;;;5.44;62.66;99686.03;5041078;28;20430;-78
2021/12/03 10:20:36;;;;;;;12.07;3.88;;;;;;;5.63;62.58;99688.75;5042497;28;20285;-78
2021/12/03 10:28:57;;;;;;;10.02;3.85;;;;;;;5.93;60.19;99685.78;5046033;28;20067;-77
2021/12/03 10:32:00;;;;;;;8.05;3.03;;;;;;;5.98;60.35;99691.25;5048398;28;20438;-79
2021/12/03 10:40:20;;;;;;;11.40;4.75;;;;;;;5.78;60.84;99673.06;5037416;28;20067;-79
2021/12/03 10:43:10;;;;;;;9.60;3.42;;;;;;;5.72;60.63;99675.06;5040198;28;20510;-77
2021/12/03 10:45:45;;;;;;;11.32;3.53;;;;;;;5.70;61.27;99675.38;5050272;28;20065;-78
2021/12/03 10:48:27;;;;;;;7.30;3.55;;;;;;;5.67;60.39;99667.69;5045937;28;20048;-78
2021/12/03 10:51:09;;;;;;;10.25;3.30;;;;;;;5.85;60.35;99641.13;5037525;28;20414;-78
2021/12/03 10:53:41;;;;;;;8.55;3.42;;;;;;;5.96;60.01;99652.03;5038483;28;20413;-78
2021/12/03 10:56:39;;;;;;;10.18;3.25;;;;;;;5.68;61.69;99646.41;5035398;28;20056;-79
2021/12/03 11:08:23;;;;;;;5.40;2.88;;;;;;;6.03;60.02;99627.59;5022999;28;20053;-77
2021/12/03 11:14:15;;;;;;;10.30;3.08;;;;;;;5.44;60.63;99619.72;5046874;28;20083;-79
2021/12/03 14:43:34;;;;;;;3.67;2.08;;;;;;;5.25;60.49;99324.34;5003684;28;20461;-65
2021/12/03 14:46:35;;;;;;;3.95;2.25;;;;;;;5.04;60.67;99317.59;5057619;28;20056;-65
2021/12/03 14:51:59;;;;;;;5.20;2.47;;;;;;;5.05;61.45;99319.22;5062778;28;20080;-65
2021/12/03 14:54:56;;;;;;;6.55;2.72;;;;;;;5.11;61.04;99306.16;5057305;28;20068;-65
2021/12/03 14:57:33;;;;;;;5.32;2.45;;;;;;;5.15;60.90;99312.69;5059626;28;20045;-65
2021/12/03 15:00:11;;;;;;;8.25;2.65;;;;;;;4.99;61.92;99315.75;5065227;28;20063;-66
2021/12/03 15:08:27;;;;;;;6.47;3.28;;;;;;;5.04;61.68;99303.78;5062981;28;20056;-66
2021/12/03 15:19:35;;;;;;;11.20;3.50;;;;;;;5.09;61.72;99320.25;5008435;28;20048;-65
2021/12/03 15:22:15;;;;;;;11.60;3.17;;;;;;;5.06;61.58;99301.53;5058433;28;20056;-65
2021/12/03 15:28:01;;;;;;;14.45;3.90;;;;;;;5.11;61.92;99301.44;5077651;28;20631;-65
2021/12/03 15:33:14;;;;;;;6.70;2.60;;;;;;;4.99;62.10;99315.75;5084139;28;20056;-64
2021/12/03 15:35:52;;;;;;;7.40;2.85;;;;;;;5.02;61.83;99290.31;5086865;28;20053;-65
2021/12/03 15:58:11;;;;;;;6.55;2.85;;;;;;;4.65;64.26;99296.81;5070489;28;20071;-65
2021/12/03 16:08:57;;;;;;;4.45;2.92;;;;;;;4.64;64.45;99279.47;5073828;28;20159;-65
2021/12/03 16:11:33;;;;;;;6.05;3.13;;;;;;;4.51;65.17;99276.66;5074005;28;20056;-65
2021/12/03 16:14:25;;;;;;;7.18;4.68;;;;;;;4.62;65.26;99275.34;5069564;28;20059;-65
2021/12/03 16:17:08;;;;;;;6.03;3.42;;;;;;;4.52;65.74;99272.81;5071390;28;20063;-65
2021/12/03 16:25:25;;;;;;;6.88;3.83;;;;;;;4.39;66.57;99264.19;5064468;28;20056;-62
2021/12/03 16:47:06;;;;;;;4.93;3.00;;;;;;;4.28;68.52;99243.44;5048629;28;20496;-65
2021/12/03 16:52:24;;;;;;;4.22;2.45;;;;;;;4.33;68.68;99254.38;5057881;28;20257;-65
2021/12/03 16:54:54;;;;;;;4.82;2.42;;;;;;;4.20;69.26;99244.13;5071689;28;20053;-65
2021/12/03 16:57:28;;;;;;;4.65;2.80;;;;;;;4.14;69.96;99245.34;5054008;28;20048;-66
2021/12/03 16:59:56;;;;;;;6.05;2.70;;;;;;;4.35;69.16;99252.13;5054846;28;20048;-65
2021/12/03 17:02:31;;;;;;;3.95;2.85;;;;;;;4.34;69.39;99244.97;5056767;28;20060;-65
2021/12/03 17:05:23;;;;;;;4.00;2.80;;;;;;;4.13;69.89;99243.72;5074284;28;20072;-65
2021/12/03 17:13:51;;;;;;;4.82;3.30;;;;;;;4.31;69.83;99239.28;5011501;28;20050;-66
2021/12/03 17:16:39;;;;;;;3.50;1.77;;;;;;;4.22;70.38;99250.16;5053218;28;20060;-67
2021/12/03 17:31:01;;;;;;;4.53;2.60;;;;;;;4.13;71.20;99232.69;5042173;28;20049;-65
2021/12/03 17:45:02;;;;;;;4.75;3.67;;;;;;;4.16;71.14;99208.09;5068749;28;20059;-64
2021/12/03 17:47:39;;;;;;;4.38;3.47;;;;;;;4.07;71.44;99212.66;5058858;28;20056;-65
2021/12/03 17:50:24;;;;;;;7.22;3.95;;;;;;;4.23;70.57;99205.75;5061260;28;20497;-65
2021/12/03 17:58:30;;;;;;;4.60;3.30;;;;;;;4.12;71.44;99206.25;5055157;28;20064;-65
2021/12/03 18:01:02;;;;;;;4.00;3.35;;;;;;;4.27;70.76;99206.78;5059429;28;20079;-65
2021/12/03 18:03:36;;;;;;;5.50;3.13;;;;;;;4.24;70.90;99201.91;5059065;28;20080;-65
2021/12/03 18:08:53;;;;;;;4.25;3.20;;;;;;;4.37;70.05;99193.94;5051459;28;20048;-64
2021/12/03 18:14:51;;;;;;;7.50;3.58;;;;;;;4.35;70.20;99202.53;5073159;28;20056;-64
2021/12/03 18:45:48;;;;;;;6.00;3.83;;;;;;;4.13;70.94;99125.22;5067822;28;20063;-65